sensor_id;sensor_type;location;lat;lon;timestamp;P1;durP1;ratioP1;P2;durP2;ratioP2
20383;SDS011;46458;50.966;7.002;2024-02-15T00:00:54;4.00;;;2.60;;
20383;SDS011;46458;50.966;7.002;2024-02-15T00:03:26;6.33;;;2.60;;
20383;SDS011;46458;50.966;7.002;2024-02-15T00:05:54;4.43;;;2.60;;
20383;SDS011;46458;50.966;7.002;2024-02-15T00:08:23;5.87;;;3.33;;
20383;SDS011;46458;50.966;7.002;2024-02-15T00:10:52;5.50;;;3.13;;
20383;SDS011;46458;50.966;7.002;2024-02-15T00:13:21;4.10;;;3.50;;
20383;SDS011;46458;50.966;7.002;2024-02-15T00:15:50;5.53;;;3.17;;
20383;SDS011;46458;50.966;7.002;2024-02-15T00:18:19;4.40;;;3.37;;
20383;SDS011;46458;50.966;7.002;2024-02-15T00:20:51;5.07;;;2.93;;
20383;SDS011;46458;50.966;7.002;2024-02-15T00:23:20;3.80;;;3.30;;
20383;SDS011;46458;50.966;7.002;2024-02-15T00:25:49;5.10;;;3.43;;
20383;SDS011;46458;50.966;7.002;2024-02-15T00:28:17;3.60;;;2.90;;
20383;SDS011;46458;50.966;7.002;2024-02-15T00:30:46;5.10;;;3.40;;
20383;SDS011;46458;50.966;7.002;2024-02-15T00:33:15;5.93;;;3.33;;
20383;SDS011;46458;50.966;7.002;2024-02-15T00:35:42;7.37;;;3.27;;
20383;SDS011;46458;50.966;7.002;2024-02-15T00:38:13;4.83;;;3.00;;
20383;SDS011;46458;50.966;7.002;2024-02-15T00:40:42;4.50;;;3.20;;
20383;SDS011;46458;50.966;7.002;2024-02-15T00:43:11;4.67;;;2.90;;
20383;SDS011;46458;50.966;7.002;2024-02-15T00:45:39;6.53;;;3.40;;
20383;SDS011;46458;50.966;7.002;2024-02-15T00:48:11;4.10;;;3.00;;
20383;SDS011;46458;50.966;7.002;2024-02-15T00:50:38;3.53;;;2.93;;
20383;SDS011;46458;50.966;7.002;2024-02-15T00:53:06;5.27;;;3.10;;
20383;SDS011;46458;50.966;7.002;2024-02-15T00:55:38;7.07;;;3.50;;
20383;SDS011;46458;50.966;7.002;2024-02-15T00:58:06;5.37;;;3.40;;
20383;SDS011;46458;50.966;7.002;2024-02-15T01:00:35;5.13;;;3.50;;
20383;SDS011;46458;50.966;7.002;2024-02-15T01:03:04;4.17;;;3.33;;
20383;SDS011;46458;50.966;7.002;2024-02-15T01:05:33;6.43;;;3.47;;
20383;SDS011;46458;50.966;7.002;2024-02-15T01:08:01;5.90;;;3.47;;
20383;SDS011;46458;50.966;7.002;2024-02-15T01:10:33;7.70;;;3.93;;
20383;SDS011;46458;50.966;7.002;2024-02-15T01:13:05;4.70;;;3.93;;
20383;SDS011;46458;50.966;7.002;2024-02-15T01:15:34;5.10;;;3.53;;
20383;SDS011;46458;50.966;7.002;2024-02-15T01:18:03;7.23;;;3.80;;
20383;SDS011;46458;50.966;7.002;2024-02-15T01:20:31;5.03;;;3.70;;
20383;SDS011;46458;50.966;7.002;2024-02-15T01:23:01;6.03;;;3.50;;
20383;SDS011;46458;50.966;7.002;2024-02-15T01:25:30;6.00;;;3.30;;
20383;SDS011;46458;50.966;7.002;2024-02-15T01:27:59;3.30;;;3.00;;
20383;SDS011;46458;50.966;7.002;2024-02-15T01:30:31;5.97;;;3.40;;
20383;SDS011;46458;50.966;7.002;2024-02-15T01:33:00;6.70;;;3.60;;
20383;SDS011;46458;50.966;7.002;2024-02-15T01:35:29;4.40;;;3.03;;
20383;SDS011;46458;50.966;7.002;2024-02-15T01:37:57;5.73;;;3.47;;
20383;SDS011;46458;50.966;7.002;2024-02-15T01:40:26;6.60;;;3.37;;
20383;SDS011;46458;50.966;7.002;2024-02-15T01:42:55;7.47;;;3.37;;
20383;SDS011;46458;50.966;7.002;2024-02-15T01:45:25;5.10;;;3.17;;
20383;SDS011;46458;50.966;7.002;2024-02-15T01:47:57;6.07;;;3.23;;
20383;SDS011;46458;50.966;7.002;2024-02-15T01:50:27;4.83;;;3.63;;
20383;SDS011;46458;50.966;7.002;2024-02-15T01:52:58;6.20;;;3.60;;
20383;SDS011;46458;50.966;7.002;2024-02-15T01:55:27;4.83;;;3.00;;
20383;SDS011;46458;50.966;7.002;2024-02-15T01:57:56;5.17;;;2.97;;
20383;SDS011;46458;50.966;7.002;2024-02-15T02:00:25;5.97;;;3.03;;
20383;SDS011;46458;50.966;7.002;2024-02-15T02:02:57;5.57;;;3.23;;
20383;SDS011;46458;50.966;7.002;2024-02-15T02:05:29;5.90;;;3.07;;
20383;SDS011;46458;50.966;7.002;2024-02-15T02:07:58;3.10;;;2.80;;
20383;SDS011;46458;50.966;7.002;2024-02-15T02:10:29;6.70;;;3.00;;
20383;SDS011;46458;50.966;7.002;2024-02-15T02:12:59;7.13;;;3.30;;
20383;SDS011;46458;50.966;7.002;2024-02-15T02:15:29;4.57;;;3.20;;
20383;SDS011;46458;50.966;7.002;2024-02-15T02:18:02;4.03;;;3.00;;
20383;SDS011;46458;50.966;7.002;2024-02-15T02:20:33;5.70;;;2.90;;
20383;SDS011;46458;50.966;7.002;2024-02-15T02:23:03;4.63;;;3.03;;
20383;SDS011;46458;50.966;7.002;2024-02-15T02:25:38;5.43;;;2.67;;
20383;SDS011;46458;50.966;7.002;2024-02-15T02:28:08;6.20;;;3.00;;
20383;SDS011;46458;50.966;7.002;2024-02-15T02:30:37;4.70;;;2.83;;
20383;SDS011;46458;50.966;7.002;2024-02-15T02:33:10;6.53;;;2.87;;
20383;SDS011;46458;50.966;7.002;2024-02-15T02:35:44;5.17;;;2.80;;
20383;SDS011;46458;50.966;7.002;2024-02-15T02:38:15;4.03;;;2.80;;
20383;SDS011;46458;50.966;7.002;2024-02-15T02:40:47;3.53;;;2.37;;
20383;SDS011;46458;50.966;7.002;2024-02-15T02:43:16;3.60;;;2.70;;
20383;SDS011;46458;50.966;7.002;2024-02-15T02:45:44;7.07;;;3.17;;
20383;SDS011;46458;50.966;7.002;2024-02-15T02:48:13;6.07;;;2.93;;
20383;SDS011;46458;50.966;7.002;2024-02-15T02:50:43;4.50;;;2.90;;
20383;SDS011;46458;50.966;7.002;2024-02-15T02:53:12;5.43;;;3.07;;
20383;SDS011;46458;50.966;7.002;2024-02-15T02:55:41;7.27;;;3.30;;
20383;SDS011;46458;50.966;7.002;2024-02-15T02:58:12;5.90;;;3.07;;
20383;SDS011;46458;50.966;7.002;2024-02-15T03:00:42;5.70;;;3.23;;
20383;SDS011;46458;50.966;7.002;2024-02-15T03:03:11;5.77;;;2.87;;
20383;SDS011;46458;50.966;7.002;2024-02-15T03:05:43;6.77;;;3.40;;
20383;SDS011;46458;50.966;7.002;2024-02-15T03:08:15;6.60;;;3.50;;
20383;SDS011;46458;50.966;7.002;2024-02-15T03:10:44;5.67;;;2.83;;
20383;SDS011;46458;50.966;7.002;2024-02-15T03:13:15;7.40;;;3.10;;
20383;SDS011;46458;50.966;7.002;2024-02-15T03:15:44;6.67;;;3.03;;
20383;SDS011;46458;50.966;7.002;2024-02-15T03:18:14;5.93;;;2.87;;
20383;SDS011;46458;50.966;7.002;2024-02-15T03:20:43;5.23;;;2.73;;
20383;SDS011;46458;50.966;7.002;2024-02-15T03:23:14;4.07;;;2.80;;
20383;SDS011;46458;50.966;7.002;2024-02-15T03:25:42;5.37;;;2.80;;
20383;SDS011;46458;50.966;7.002;2024-02-15T03:28:11;6.17;;;3.10;;
20383;SDS011;46458;50.966;7.002;2024-02-15T03:30:43;5.03;;;2.30;;
20383;SDS011;46458;50.966;7.002;2024-02-15T03:33:12;4.70;;;2.87;;
20383;SDS011;46458;50.966;7.002;2024-02-15T03:35:41;5.77;;;2.90;;
20383;SDS011;46458;50.966;7.002;2024-02-15T03:38:10;5.23;;;3.30;;
20383;SDS011;46458;50.966;7.002;2024-02-15T03:40:39;5.90;;;2.70;;
20383;SDS011;46458;50.966;7.002;2024-02-15T03:43:08;7.00;;;2.87;;
20383;SDS011;46458;50.966;7.002;2024-02-15T03:45:38;5.67;;;2.93;;
20383;SDS011;46458;50.966;7.002;2024-02-15T03:48:09;4.27;;;3.10;;
20383;SDS011;46458;50.966;7.002;2024-02-15T03:50:38;7.00;;;2.70;;
20383;SDS011;46458;50.966;7.002;2024-02-15T03:53:09;6.80;;;2.83;;
20383;SDS011;46458;50.966;7.002;2024-02-15T03:55:39;5.97;;;2.53;;
20383;SDS011;46458;50.966;7.002;2024-02-15T03:58:08;4.77;;;2.93;;
20383;SDS011;46458;50.966;7.002;2024-02-15T04:00:40;6.53;;;2.67;;
20383;SDS011;46458;50.966;7.002;2024-02-15T04:03:12;4.93;;;2.73;;
20383;SDS011;46458;50.966;7.002;2024-02-15T04:05:41;3.63;;;2.50;;
20383;SDS011;46458;50.966;7.002;2024-02-15T04:08:10;4.73;;;2.57;;
20383;SDS011;46458;50.966;7.002;2024-02-15T04:10:39;6.03;;;2.90;;
20383;SDS011;46458;50.966;7.002;2024-02-15T04:13:08;5.87;;;2.70;;
20383;SDS011;46458;50.966;7.002;2024-02-15T04:15:36;4.60;;;2.70;;
20383;SDS011;46458;50.966;7.002;2024-02-15T04:18:07;4.60;;;3.00;;
20383;SDS011;46458;50.966;7.002;2024-02-15T04:20:38;4.50;;;2.63;;
20383;SDS011;46458;50.966;7.002;2024-02-15T04:23:10;3.53;;;2.37;;
20383;SDS011;46458;50.966;7.002;2024-02-15T04:25:38;4.77;;;2.83;;
20383;SDS011;46458;50.966;7.002;2024-02-15T04:28:09;5.40;;;2.87;;
20383;SDS011;46458;50.966;7.002;2024-02-15T04:30:38;3.03;;;2.30;;
20383;SDS011;46458;50.966;7.002;2024-02-15T04:33:06;3.90;;;2.50;;
20383;SDS011;46458;50.966;7.002;2024-02-15T04:35:36;4.10;;;2.17;;
20383;SDS011;46458;50.966;7.002;2024-02-15T04:38:07;3.80;;;2.70;;
20383;SDS011;46458;50.966;7.002;2024-02-15T04:40:36;4.20;;;2.30;;
20383;SDS011;46458;50.966;7.002;2024-02-15T04:43:05;5.23;;;2.13;;
20383;SDS011;46458;50.966;7.002;2024-02-15T04:45:34;3.60;;;2.00;;
20383;SDS011;46458;50.966;7.002;2024-02-15T04:48:05;6.60;;;2.07;;
20383;SDS011;46458;50.966;7.002;2024-02-15T04:50:34;5.83;;;2.67;;
20383;SDS011;46458;50.966;7.002;2024-02-15T04:53:05;4.03;;;2.17;;
20383;SDS011;46458;50.966;7.002;2024-02-15T04:55:34;6.60;;;2.33;;
20383;SDS011;46458;50.966;7.002;2024-02-15T04:58:03;3.53;;;2.60;;
20383;SDS011;46458;50.966;7.002;2024-02-15T05:00:32;7.57;;;2.37;;
20383;SDS011;46458;50.966;7.002;2024-02-15T05:03:01;4.70;;;2.20;;
20383;SDS011;46458;50.966;7.002;2024-02-15T05:05:33;7.73;;;2.40;;
20383;SDS011;46458;50.966;7.002;2024-02-15T05:08:07;3.40;;;2.40;;
20383;SDS011;46458;50.966;7.002;2024-02-15T05:10:35;5.37;;;2.10;;
20383;SDS011;46458;50.966;7.002;2024-02-15T05:13:04;3.20;;;2.03;;
20383;SDS011;46458;50.966;7.002;2024-02-15T05:15:33;6.50;;;2.20;;
20383;SDS011;46458;50.966;7.002;2024-02-15T05:18:02;6.50;;;2.40;;
20383;SDS011;46458;50.966;7.002;2024-02-15T05:20:34;6.27;;;2.40;;
20383;SDS011;46458;50.966;7.002;2024-02-15T05:23:03;5.73;;;2.53;;
20383;SDS011;46458;50.966;7.002;2024-02-15T05:25:35;4.03;;;2.53;;
20383;SDS011;46458;50.966;7.002;2024-02-15T05:28:04;7.17;;;2.33;;
20383;SDS011;46458;50.966;7.002;2024-02-15T05:30:34;6.60;;;2.33;;
20383;SDS011;46458;50.966;7.002;2024-02-15T05:33:04;6.37;;;2.57;;
20383;SDS011;46458;50.966;7.002;2024-02-15T05:35:35;4.10;;;2.30;;
20383;SDS011;46458;50.966;7.002;2024-02-15T05:38:07;7.57;;;2.50;;
20383;SDS011;46458;50.966;7.002;2024-02-15T05:40:40;4.17;;;2.53;;
20383;SDS011;46458;50.966;7.002;2024-02-15T05:43:09;8.57;;;2.80;;
20383;SDS011;46458;50.966;7.002;2024-02-15T05:45:39;7.30;;;3.40;;
20383;SDS011;46458;50.966;7.002;2024-02-15T05:48:09;6.03;;;2.43;;
20383;SDS011;46458;50.966;7.002;2024-02-15T05:50:38;3.47;;;2.50;;
20383;SDS011;46458;50.966;7.002;2024-02-15T05:53:12;5.30;;;3.07;;
20383;SDS011;46458;50.966;7.002;2024-02-15T05:55:41;4.20;;;2.43;;
20383;SDS011;46458;50.966;7.002;2024-02-15T05:58:09;4.93;;;2.57;;
20383;SDS011;46458;50.966;7.002;2024-02-15T06:00:39;3.47;;;2.40;;
20383;SDS011;46458;50.966;7.002;2024-02-15T06:03:09;4.77;;;2.80;;
20383;SDS011;46458;50.966;7.002;2024-02-15T06:05:41;5.70;;;2.30;;
20383;SDS011;46458;50.966;7.002;2024-02-15T06:08:12;6.07;;;2.57;;
20383;SDS011;46458;50.966;7.002;2024-02-15T06:10:42;7.03;;;3.40;;
20383;SDS011;46458;50.966;7.002;2024-02-15T06:13:12;3.67;;;2.30;;
20383;SDS011;46458;50.966;7.002;2024-02-15T06:15:41;4.60;;;2.70;;
20383;SDS011;46458;50.966;7.002;2024-02-15T06:18:12;3.23;;;2.37;;
20383;SDS011;46458;50.966;7.002;2024-02-15T06:20:41;6.53;;;3.07;;
20383;SDS011;46458;50.966;7.002;2024-02-15T06:23:17;6.13;;;2.83;;
20383;SDS011;46458;50.966;7.002;2024-02-15T06:25:46;5.73;;;2.63;;
20383;SDS011;46458;50.966;7.002;2024-02-15T06:28:16;6.00;;;2.70;;
20383;SDS011;46458;50.966;7.002;2024-02-15T06:31:07;6.97;;;3.00;;
20383;SDS011;46458;50.966;7.002;2024-02-15T06:33:49;8.33;;;3.13;;
20383;SDS011;46458;50.966;7.002;2024-02-15T06:36:30;7.17;;;3.00;;
20383;SDS011;46458;50.966;7.002;2024-02-15T06:39:14;7.53;;;3.33;;
20383;SDS011;46458;50.966;7.002;2024-02-15T06:41:55;6.67;;;3.57;;
20383;SDS011;46458;50.966;7.002;2024-02-15T06:44:24;5.10;;;2.63;;
20383;SDS011;46458;50.966;7.002;2024-02-15T06:46:53;3.23;;;2.93;;
20383;SDS011;46458;50.966;7.002;2024-02-15T06:49:22;8.43;;;2.83;;
20383;SDS011;46458;50.966;7.002;2024-02-15T06:51:52;5.70;;;2.83;;
20383;SDS011;46458;50.966;7.002;2024-02-15T06:54:24;4.93;;;2.60;;
20383;SDS011;46458;50.966;7.002;2024-02-15T06:56:52;9.37;;;2.80;;
20383;SDS011;46458;50.966;7.002;2024-02-15T06:59:22;4.77;;;2.97;;
20383;SDS011;46458;50.966;7.002;2024-02-15T07:01:51;6.60;;;2.53;;
20383;SDS011;46458;50.966;7.002;2024-02-15T07:04:20;8.67;;;2.90;;
20383;SDS011;46458;50.966;7.002;2024-02-15T07:06:51;8.83;;;3.20;;
20383;SDS011;46458;50.966;7.002;2024-02-15T07:09:19;6.67;;;3.37;;
20383;SDS011;46458;50.966;7.002;2024-02-15T07:11:52;7.60;;;2.93;;
20383;SDS011;46458;50.966;7.002;2024-02-15T07:14:21;4.67;;;2.60;;
20383;SDS011;46458;50.966;7.002;2024-02-15T07:16:49;6.80;;;2.93;;
20383;SDS011;46458;50.966;7.002;2024-02-15T07:19:18;11.83;;;3.33;;
20383;SDS011;46458;50.966;7.002;2024-02-15T07:21:47;7.27;;;3.20;;
20383;SDS011;46458;50.966;7.002;2024-02-15T07:24:16;8.17;;;3.30;;
20383;SDS011;46458;50.966;7.002;2024-02-15T07:26:45;9.30;;;3.20;;
20383;SDS011;46458;50.966;7.002;2024-02-15T07:29:16;5.20;;;3.23;;
20383;SDS011;46458;50.966;7.002;2024-02-15T07:31:45;8.73;;;3.50;;
20383;SDS011;46458;50.966;7.002;2024-02-15T07:34:14;6.63;;;3.37;;
20383;SDS011;46458;50.966;7.002;2024-02-15T07:36:43;6.73;;;2.93;;
20383;SDS011;46458;50.966;7.002;2024-02-15T07:39:11;7.80;;;3.33;;
20383;SDS011;46458;50.966;7.002;2024-02-15T07:41:48;6.87;;;3.97;;
20383;SDS011;46458;50.966;7.002;2024-02-15T07:44:19;8.00;;;3.20;;
20383;SDS011;46458;50.966;7.002;2024-02-15T07:46:48;6.40;;;3.30;;
20383;SDS011;46458;50.966;7.002;2024-02-15T07:49:18;10.10;;;4.27;;
20383;SDS011;46458;50.966;7.002;2024-02-15T07:51:47;9.23;;;3.53;;
20383;SDS011;46458;50.966;7.002;2024-02-15T07:54:18;8.10;;;3.77;;
20383;SDS011;46458;50.966;7.002;2024-02-15T07:56:47;5.33;;;3.67;;
20383;SDS011;46458;50.966;7.002;2024-02-15T07:59:17;4.60;;;3.20;;
20383;SDS011;46458;50.966;7.002;2024-02-15T08:01:48;8.23;;;3.90;;
20383;SDS011;46458;50.966;7.002;2024-02-15T08:04:17;11.50;;;3.30;;
20383;SDS011;46458;50.966;7.002;2024-02-15T08:06:46;8.67;;;3.70;;
20383;SDS011;46458;50.966;7.002;2024-02-15T08:09:17;6.73;;;3.10;;
20383;SDS011;46458;50.966;7.002;2024-02-15T08:11:49;8.33;;;3.27;;
20383;SDS011;46458;50.966;7.002;2024-02-15T08:14:20;5.67;;;3.07;;
20383;SDS011;46458;50.966;7.002;2024-02-15T08:16:49;6.47;;;3.40;;
20383;SDS011;46458;50.966;7.002;2024-02-15T08:19:18;6.60;;;3.03;;
20383;SDS011;46458;50.966;7.002;2024-02-15T08:21:48;5.53;;;3.20;;
20383;SDS011;46458;50.966;7.002;2024-02-15T08:24:17;7.37;;;3.40;;
20383;SDS011;46458;50.966;7.002;2024-02-15T08:26:46;11.30;;;3.50;;
20383;SDS011;46458;50.966;7.002;2024-02-15T08:29:15;8.50;;;3.80;;
20383;SDS011;46458;50.966;7.002;2024-02-15T08:31:47;8.47;;;3.57;;
20383;SDS011;46458;50.966;7.002;2024-02-15T08:34:16;11.00;;;3.33;;
20383;SDS011;46458;50.966;7.002;2024-02-15T08:36:46;6.73;;;3.30;;
20383;SDS011;46458;50.966;7.002;2024-02-15T08:39:15;7.50;;;3.57;;
20383;SDS011;46458;50.966;7.002;2024-02-15T08:41:44;6.47;;;3.90;;
20383;SDS011;46458;50.966;7.002;2024-02-15T08:44:13;10.83;;;4.13;;
20383;SDS011;46458;50.966;7.002;2024-02-15T08:46:44;7.40;;;3.67;;
20383;SDS011;46458;50.966;7.002;2024-02-15T08:49:16;9.63;;;4.47;;
20383;SDS011;46458;50.966;7.002;2024-02-15T08:51:44;11.73;;;4.57;;
20383;SDS011;46458;50.966;7.002;2024-02-15T08:54:13;11.50;;;4.60;;
20383;SDS011;46458;50.966;7.002;2024-02-15T08:56:42;8.00;;;4.90;;
20383;SDS011;46458;50.966;7.002;2024-02-15T08:59:11;10.67;;;5.20;;
20383;SDS011;46458;50.966;7.002;2024-02-15T09:01:40;10.33;;;5.13;;
20383;SDS011;46458;50.966;7.002;2024-02-15T09:04:11;7.10;;;4.20;;
20383;SDS011;46458;50.966;7.002;2024-02-15T09:06:43;9.97;;;4.43;;
20383;SDS011;46458;50.966;7.002;2024-02-15T09:09:11;7.07;;;5.03;;
20383;SDS011;46458;50.966;7.002;2024-02-15T09:11:40;10.93;;;5.20;;
20383;SDS011;46458;50.966;7.002;2024-02-15T09:14:09;10.13;;;4.67;;
20383;SDS011;46458;50.966;7.002;2024-02-15T09:16:38;8.53;;;4.30;;
20383;SDS011;46458;50.966;7.002;2024-02-15T09:19:07;6.57;;;4.27;;
20383;SDS011;46458;50.966;7.002;2024-02-15T09:21:36;10.17;;;4.00;;
20383;SDS011;46458;50.966;7.002;2024-02-15T09:24:07;6.83;;;3.80;;
20383;SDS011;46458;50.966;7.002;2024-02-15T09:26:36;8.83;;;4.53;;
20383;SDS011;46458;50.966;7.002;2024-02-15T09:29:04;9.37;;;3.97;;
20383;SDS011;46458;50.966;7.002;2024-02-15T09:31:33;5.67;;;3.47;;
20383;SDS011;46458;50.966;7.002;2024-02-15T09:34:02;9.17;;;3.70;;
20383;SDS011;46458;50.966;7.002;2024-02-15T09:36:33;7.17;;;3.50;;
20383;SDS011;46458;50.966;7.002;2024-02-15T09:39:03;9.70;;;3.70;;
20383;SDS011;46458;50.966;7.002;2024-02-15T09:41:34;11.47;;;3.73;;
20383;SDS011;46458;50.966;7.002;2024-02-15T09:44:04;4.27;;;3.53;;
20383;SDS011;46458;50.966;7.002;2024-02-15T09:46:33;8.93;;;3.50;;
20383;SDS011;46458;50.966;7.002;2024-02-15T09:49:04;7.17;;;3.37;;
20383;SDS011;46458;50.966;7.002;2024-02-15T09:51:33;10.20;;;3.90;;
20383;SDS011;46458;50.966;7.002;2024-02-15T09:54:02;11.50;;;3.53;;
20383;SDS011;46458;50.966;7.002;2024-02-15T09:56:37;6.03;;;2.70;;
20383;SDS011;46458;50.966;7.002;2024-02-15T09:59:08;5.93;;;2.90;;
20383;SDS011;46458;50.966;7.002;2024-02-15T10:01:36;7.90;;;2.90;;
20383;SDS011;46458;50.966;7.002;2024-02-15T10:04:07;5.53;;;2.77;;
20383;SDS011;46458;50.966;7.002;2024-02-15T10:06:40;4.60;;;2.30;;
20383;SDS011;46458;50.966;7.002;2024-02-15T10:09:25;5.70;;;2.70;;
20383;SDS011;46458;50.966;7.002;2024-02-15T10:12:00;5.20;;;2.70;;
20383;SDS011;46458;50.966;7.002;2024-02-15T10:14:32;4.23;;;2.33;;
20383;SDS011;46458;50.966;7.002;2024-02-15T10:17:05;5.63;;;2.87;;
20383;SDS011;46458;50.966;7.002;2024-02-15T10:19:36;7.63;;;2.70;;
20383;SDS011;46458;50.966;7.002;2024-02-15T10:22:07;7.35;;;2.47;;
20383;SDS011;46458;50.966;7.002;2024-02-15T10:24:40;5.07;;;2.77;;
20383;SDS011;46458;50.966;7.002;2024-02-15T10:27:12;6.73;;;2.73;;
20383;SDS011;46458;50.966;7.002;2024-02-15T10:29:40;4.13;;;2.47;;
20383;SDS011;46458;50.966;7.002;2024-02-15T10:32:10;5.43;;;2.70;;
20383;SDS011;46458;50.966;7.002;2024-02-15T10:34:43;6.20;;;2.90;;
20383;SDS011;46458;50.966;7.002;2024-02-15T10:37:15;6.27;;;2.70;;
20383;SDS011;46458;50.966;7.002;2024-02-15T10:39:45;5.73;;;3.00;;
20383;SDS011;46458;50.966;7.002;2024-02-15T10:42:25;4.27;;;2.37;;
20383;SDS011;46458;50.966;7.002;2024-02-15T10:44:55;5.57;;;2.60;;
20383;SDS011;46458;50.966;7.002;2024-02-15T10:47:26;7.37;;;4.07;;
20383;SDS011;46458;50.966;7.002;2024-02-15T10:49:55;8.40;;;5.47;;
20383;SDS011;46458;50.966;7.002;2024-02-15T10:52:24;3.63;;;2.87;;
20383;SDS011;46458;50.966;7.002;2024-02-15T10:55:01;6.88;;;2.60;;
20383;SDS011;46458;50.966;7.002;2024-02-15T10:57:37;4.73;;;2.53;;
20383;SDS011;46458;50.966;7.002;2024-02-15T11:00:07;4.65;;;2.40;;
20383;SDS011;46458;50.966;7.002;2024-02-15T11:02:49;4.65;;;2.15;;
20383;SDS011;46458;50.966;7.002;2024-02-15T11:05:27;3.93;;;2.40;;
20383;SDS011;46458;50.966;7.002;2024-02-15T11:08:00;2.90;;;2.17;;
20383;SDS011;46458;50.966;7.002;2024-02-15T11:10:30;5.18;;;2.20;;
20383;SDS011;46458;50.966;7.002;2024-02-15T11:13:02;4.95;;;1.98;;
20383;SDS011;46458;50.966;7.002;2024-02-15T11:15:42;4.70;;;1.95;;
20383;SDS011;46458;50.966;7.002;2024-02-15T11:21:14;5.15;;;2.13;;
20383;SDS011;46458;50.966;7.002;2024-02-15T11:23:43;3.88;;;2.22;;
20383;SDS011;46458;50.966;7.002;2024-02-15T11:32:14;4.40;;;2.88;;
20383;SDS011;46458;50.966;7.002;2024-02-15T11:35:05;4.15;;;2.85;;
20383;SDS011;46458;50.966;7.002;2024-02-15T11:37:51;5.55;;;2.40;;
20383;SDS011;46458;50.966;7.002;2024-02-15T11:40:24;5.45;;;2.00;;
20383;SDS011;46458;50.966;7.002;2024-02-15T11:42:54;4.00;;;2.15;;
20383;SDS011;46458;50.966;7.002;2024-02-15T11:45:25;3.80;;;2.20;;
20383;SDS011;46458;50.966;7.002;2024-02-15T11:48:00;3.83;;;2.00;;
20383;SDS011;46458;50.966;7.002;2024-02-15T11:50:33;3.95;;;2.08;;
20383;SDS011;46458;50.966;7.002;2024-02-15T11:53:05;5.05;;;2.10;;
20383;SDS011;46458;50.966;7.002;2024-02-15T11:55:35;3.58;;;2.10;;
20383;SDS011;46458;50.966;7.002;2024-02-15T11:58:04;4.97;;;2.45;;
20383;SDS011;46458;50.966;7.002;2024-02-15T12:00:42;3.60;;;1.90;;
20383;SDS011;46458;50.966;7.002;2024-02-15T12:03:26;5.45;;;2.47;;
20383;SDS011;46458;50.966;7.002;2024-02-15T12:06:08;3.70;;;2.15;;
20383;SDS011;46458;50.966;7.002;2024-02-15T12:08:49;4.10;;;2.22;;
20383;SDS011;46458;50.966;7.002;2024-02-15T12:11:31;5.25;;;2.03;;
20383;SDS011;46458;50.966;7.002;2024-02-15T12:14:13;3.85;;;2.38;;
20383;SDS011;46458;50.966;7.002;2024-02-15T12:17:01;3.55;;;2.10;;
20383;SDS011;46458;50.966;7.002;2024-02-15T12:19:47;3.17;;;2.20;;
20383;SDS011;46458;50.966;7.002;2024-02-15T12:22:19;6.78;;;2.30;;
20383;SDS011;46458;50.966;7.002;2024-02-15T12:24:54;6.75;;;1.95;;
20383;SDS011;46458;50.966;7.002;2024-02-15T12:27:23;5.78;;;2.15;;
20383;SDS011;46458;50.966;7.002;2024-02-15T12:29:53;8.98;;;2.45;;
20383;SDS011;46458;50.966;7.002;2024-02-15T12:32:23;5.68;;;2.60;;
20383;SDS011;46458;50.966;7.002;2024-02-15T12:35:09;5.70;;;2.83;;
20383;SDS011;46458;50.966;7.002;2024-02-15T12:37:41;4.80;;;2.08;;
20383;SDS011;46458;50.966;7.002;2024-02-15T12:40:10;5.00;;;2.40;;
20383;SDS011;46458;50.966;7.002;2024-02-15T12:42:41;6.00;;;2.38;;
20383;SDS011;46458;50.966;7.002;2024-02-15T12:45:15;5.10;;;2.15;;
20383;SDS011;46458;50.966;7.002;2024-02-15T12:47:47;5.68;;;2.08;;
20383;SDS011;46458;50.966;7.002;2024-02-15T12:50:20;3.78;;;1.95;;
20383;SDS011;46458;50.966;7.002;2024-02-15T12:52:50;3.70;;;1.95;;
20383;SDS011;46458;50.966;7.002;2024-02-15T12:55:21;3.10;;;1.98;;
20383;SDS011;46458;50.966;7.002;2024-02-15T12:57:51;4.20;;;1.95;;
20383;SDS011;46458;50.966;7.002;2024-02-15T13:00:22;6.30;;;2.40;;
20383;SDS011;46458;50.966;7.002;2024-02-15T13:02:54;4.88;;;2.38;;
20383;SDS011;46458;50.966;7.002;2024-02-15T13:05:27;7.40;;;2.13;;
20383;SDS011;46458;50.966;7.002;2024-02-15T13:07:56;4.55;;;2.35;;
20383;SDS011;46458;50.966;7.002;2024-02-15T13:10:27;5.03;;;3.10;;
20383;SDS011;46458;50.966;7.002;2024-02-15T13:12:57;7.53;;;3.13;;
20383;SDS011;46458;50.966;7.002;2024-02-15T13:15:26;6.93;;;3.05;;
20383;SDS011;46458;50.966;7.002;2024-02-15T13:17:58;7.75;;;3.30;;
20383;SDS011;46458;50.966;7.002;2024-02-15T13:20:32;5.55;;;2.65;;
20383;SDS011;46458;50.966;7.002;2024-02-15T13:23:03;3.97;;;2.45;;
20383;SDS011;46458;50.966;7.002;2024-02-15T13:25:40;4.13;;;2.17;;
20383;SDS011;46458;50.966;7.002;2024-02-15T13:28:10;3.03;;;2.05;;
20383;SDS011;46458;50.966;7.002;2024-02-15T13:30:40;3.75;;;2.47;;
20383;SDS011;46458;50.966;7.002;2024-02-15T13:33:10;5.30;;;2.67;;
20383;SDS011;46458;50.966;7.002;2024-02-15T13:35:41;4.68;;;2.10;;
20383;SDS011;46458;50.966;7.002;2024-02-15T13:38:11;3.80;;;2.10;;
20383;SDS011;46458;50.966;7.002;2024-02-15T13:40:46;6.85;;;2.60;;
20383;SDS011;46458;50.966;7.002;2024-02-15T13:43:16;3.55;;;2.17;;
20383;SDS011;46458;50.966;7.002;2024-02-15T13:45:45;6.60;;;2.60;;
20383;SDS011;46458;50.966;7.002;2024-02-15T13:48:14;4.10;;;1.80;;
20383;SDS011;46458;50.966;7.002;2024-02-15T13:50:45;3.58;;;2.00;;
20383;SDS011;46458;50.966;7.002;2024-02-15T13:53:14;4.50;;;2.40;;
20383;SDS011;46458;50.966;7.002;2024-02-15T13:55:43;4.65;;;2.40;;
20383;SDS011;46458;50.966;7.002;2024-02-15T13:58:13;5.53;;;3.30;;
20383;SDS011;46458;50.966;7.002;2024-02-15T14:00:42;5.00;;;3.40;;
20383;SDS011;46458;50.966;7.002;2024-02-15T14:03:11;4.57;;;2.17;;
20383;SDS011;46458;50.966;7.002;2024-02-15T14:05:40;6.35;;;2.00;;
20383;SDS011;46458;50.966;7.002;2024-02-15T14:08:14;6.45;;;2.08;;
20383;SDS011;46458;50.966;7.002;2024-02-15T14:10:45;5.07;;;2.10;;
20383;SDS011;46458;50.966;7.002;2024-02-15T14:13:14;5.10;;;1.75;;
20383;SDS011;46458;50.966;7.002;2024-02-15T14:15:43;4.90;;;2.10;;
20383;SDS011;46458;50.966;7.002;2024-02-15T14:18:12;3.20;;;1.98;;
20383;SDS011;46458;50.966;7.002;2024-02-15T14:20:43;5.20;;;2.00;;
20383;SDS011;46458;50.966;7.002;2024-02-15T14:23:15;3.67;;;1.90;;
20383;SDS011;46458;50.966;7.002;2024-02-15T14:25:44;4.55;;;2.42;;
20383;SDS011;46458;50.966;7.002;2024-02-15T14:28:13;4.80;;;2.13;;
20383;SDS011;46458;50.966;7.002;2024-02-15T14:30:42;4.53;;;2.17;;
20383;SDS011;46458;50.966;7.002;2024-02-15T14:33:23;6.53;;;2.00;;
20383;SDS011;46458;50.966;7.002;2024-02-15T14:35:52;4.43;;;1.92;;
20383;SDS011;46458;50.966;7.002;2024-02-15T14:38:24;2.55;;;1.75;;
20383;SDS011;46458;50.966;7.002;2024-02-15T14:40:52;2.72;;;1.85;;
20383;SDS011;46458;50.966;7.002;2024-02-15T14:43:23;5.07;;;2.80;;
20383;SDS011;46458;50.966;7.002;2024-02-15T14:45:52;4.72;;;2.72;;
20383;SDS011;46458;50.966;7.002;2024-02-15T14:48:21;5.10;;;2.20;;
20383;SDS011;46458;50.966;7.002;2024-02-15T14:50:50;2.90;;;1.70;;
20383;SDS011;46458;50.966;7.002;2024-02-15T14:53:23;3.53;;;2.00;;
20383;SDS011;46458;50.966;7.002;2024-02-15T14:55:52;3.45;;;2.00;;
20383;SDS011;46458;50.966;7.002;2024-02-15T14:58:21;3.42;;;1.80;;
20383;SDS011;46458;50.966;7.002;2024-02-15T15:00:50;4.50;;;2.22;;
20383;SDS011;46458;50.966;7.002;2024-02-15T15:03:19;2.65;;;1.60;;
20383;SDS011;46458;50.966;7.002;2024-02-15T15:05:48;2.70;;;1.65;;
20383;SDS011;46458;50.966;7.002;2024-02-15T15:08:32;4.32;;;1.50;;
20383;SDS011;46458;50.966;7.002;2024-02-15T15:11:13;4.25;;;1.60;;
20383;SDS011;46458;50.966;7.002;2024-02-15T15:13:54;4.30;;;1.70;;
20383;SDS011;46458;50.966;7.002;2024-02-15T15:16:23;3.70;;;1.90;;
20383;SDS011;46458;50.966;7.002;2024-02-15T15:18:53;4.97;;;1.77;;